createdAt,value
2022-11-10T00:01:04.947Z,11.30
2022-11-10T00:03:53.933Z,11.26
2022-11-10T00:06:41.390Z,11.22
2022-11-10T00:09:29.056Z,11.23
2022-11-10T00:12:16.590Z,11.26
2022-11-10T00:15:24.076Z,11.23
2022-11-10T00:18:11.873Z,11.07
2022-11-10T00:21:04.807Z,11.01
2022-11-10T00:23:52.203Z,11.04
2022-11-10T00:26:39.764Z,11.06
2022-11-10T00:29:27.027Z,11.13
2022-11-10T00:32:16.701Z,11.19
2022-11-10T00:35:04.928Z,11.17
2022-11-10T00:37:52.751Z,11.12
2022-11-10T00:40:40.365Z,11.12
2022-11-10T00:43:30.920Z,11.12
2022-11-10T00:46:18.901Z,11.16
2022-11-10T00:49:06.979Z,11.20
2022-11-10T00:51:54.810Z,11.16
2022-11-10T00:54:44.907Z,11.20
2022-11-10T00:57:32.312Z,11.23
2022-11-10T01:00:22.698Z,11.19
2022-11-10T01:03:15.453Z,11.19
2022-11-10T01:06:06.536Z,11.20
2022-11-10T01:08:53.951Z,11.25
2022-11-10T01:11:41.313Z,11.26
2022-11-10T01:14:29.117Z,11.28
2022-11-10T01:17:16.927Z,11.29
2022-11-10T01:20:10.800Z,11.25
2022-11-10T01:22:59.107Z,11.28
2022-11-10T01:25:46.928Z,11.32
2022-11-10T01:28:37.527Z,11.34
2022-11-10T01:31:24.748Z,11.37
2022-11-10T01:34:12.292Z,11.38
2022-11-10T01:36:59.987Z,11.37
2022-11-10T01:39:47.747Z,11.33
2022-11-10T01:42:49.203Z,11.34
2022-11-10T01:45:45.583Z,11.35
2022-11-10T01:51:48.240Z,11.34
2022-11-10T01:54:41.431Z,11.35
2022-11-10T01:57:29.722Z,11.34
2022-11-10T02:00:18.261Z,11.30
2022-11-10T02:03:13.292Z,11.29
2022-11-10T02:06:01.653Z,11.30
2022-11-10T02:08:50.251Z,11.32
2022-11-10T02:11:39.639Z,11.34
2022-11-10T02:14:29.720Z,11.40
2022-11-10T02:17:19.549Z,11.41
2022-11-10T02:20:11.619Z,11.43
2022-11-10T02:22:59.392Z,11.42
2022-11-10T02:25:47.140Z,11.36
2022-11-10T02:28:35.698Z,11.36
2022-11-10T02:31:23.206Z,11.34
2022-11-10T02:34:10.684Z,11.33
2022-11-10T02:36:58.263Z,11.33
2022-11-10T02:39:48.061Z,11.36
2022-11-10T02:42:35.656Z,11.33
2022-11-10T02:45:23.207Z,11.35
2022-11-10T02:48:14.808Z,11.39
2022-11-10T02:51:02.778Z,11.40
2022-11-10T02:53:52.994Z,11.36
2022-11-10T02:56:40.957Z,11.35
2022-11-10T02:59:28.215Z,11.32
2022-11-10T03:02:15.765Z,11.36
2022-11-10T03:05:06.118Z,11.37
2022-11-10T03:07:55.401Z,11.39
2022-11-10T03:10:42.991Z,11.39
2022-11-10T03:13:45.431Z,11.34
2022-11-10T03:16:41.191Z,11.26
2022-11-10T03:19:28.679Z,11.25
2022-11-10T03:22:16.712Z,11.28
2022-11-10T03:25:05.518Z,11.29
2022-11-10T03:27:52.844Z,11.32
2022-11-10T03:30:40.876Z,11.34
2022-11-10T03:33:28.213Z,11.35
2022-11-10T03:36:15.824Z,11.33
2022-11-10T03:39:03.729Z,11.33
2022-11-10T03:41:51.276Z,11.36
2022-11-10T03:44:39.231Z,11.36
2022-11-10T03:47:26.792Z,11.37
2022-11-10T03:50:14.905Z,11.39
2022-11-10T03:53:02.211Z,11.42
2022-11-10T03:55:52.183Z,11.44
2022-11-10T03:58:40.142Z,11.44
2022-11-10T04:01:27.891Z,11.42
2022-11-10T04:04:30.708Z,11.44
2022-11-10T04:07:37.456Z,11.41
2022-11-10T04:10:25.948Z,11.37
2022-11-10T04:13:34.882Z,11.34
2022-11-10T04:16:22.722Z,11.31
2022-11-10T04:19:37.343Z,11.28
2022-11-10T04:22:39.681Z,11.24
2022-11-10T04:25:27.339Z,11.27
2022-11-10T04:28:14.641Z,11.29
2022-11-10T04:31:06.478Z,11.29
2022-11-10T04:33:57.263Z,11.29
2022-11-10T04:36:48.609Z,11.32
2022-11-10T04:39:36.022Z,11.33
2022-11-10T04:42:23.492Z,11.31
2022-11-10T04:45:14.331Z,11.32
2022-11-10T04:48:01.870Z,11.31
2022-11-10T04:50:49.439Z,11.30
2022-11-10T04:53:36.994Z,11.24
2022-11-10T04:56:25.126Z,11.28
2022-11-10T04:59:12.610Z,11.26
2022-11-10T05:02:00.238Z,11.30
2022-11-10T05:04:47.724Z,11.29
2022-11-10T05:07:35.072Z,11.32
2022-11-10T05:10:22.736Z,11.33
2022-11-10T05:13:10.933Z,11.32
2022-11-10T05:15:58.455Z,11.29
2022-11-10T05:18:46.348Z,11.31
2022-11-10T05:21:33.693Z,11.31
2022-11-10T05:24:21.130Z,11.31
2022-11-10T05:27:08.804Z,11.29
2022-11-10T05:29:56.244Z,11.29
2022-11-10T05:32:43.749Z,11.30
2022-11-10T05:35:34.945Z,11.28
2022-11-10T05:38:22.930Z,11.29
2022-11-10T05:41:10.925Z,11.28
2022-11-10T05:43:58.287Z,11.27
2022-11-10T05:46:46.173Z,11.26
2022-11-10T05:49:34.045Z,11.24
2022-11-10T05:52:21.217Z,11.21
2022-11-10T05:55:10.589Z,11.22
2022-11-10T05:57:59.291Z,11.17
2022-11-10T06:00:46.790Z,11.14
2022-11-10T06:03:34.047Z,11.09
2022-11-10T06:06:22.459Z,11.10
2022-11-10T06:09:12.626Z,11.17
2022-11-10T06:12:01.075Z,11.22
2022-11-10T06:14:49.072Z,11.16
2022-11-10T06:17:38.608Z,11.19
2022-11-10T06:20:28.743Z,11.21
2022-11-10T06:23:18.780Z,11.20
2022-11-10T06:26:06.776Z,11.21
2022-11-10T06:28:54.422Z,11.22
2022-11-10T06:31:41.590Z,11.24
2022-11-10T06:34:29.154Z,11.21
2022-11-10T06:37:16.974Z,11.20
2022-11-10T06:40:06.474Z,11.21
2022-11-10T06:42:54.481Z,11.23
2022-11-10T06:45:42.351Z,11.20
2022-11-10T06:48:29.959Z,11.22
2022-11-10T06:51:17.921Z,11.20
2022-11-10T06:54:06.920Z,11.24
2022-11-10T06:56:54.378Z,11.22
2022-11-10T06:59:41.960Z,11.17
2022-11-10T07:02:29.567Z,11.19
2022-11-10T07:05:17.180Z,11.21
2022-11-10T07:08:09.064Z,11.24
2022-11-10T07:10:58.676Z,11.21
2022-11-10T07:13:48.896Z,11.21
2022-11-10T07:16:36.991Z,11.20
2022-11-10T07:19:24.619Z,11.23
2022-11-10T07:22:14.375Z,11.27
2022-11-10T07:25:01.760Z,11.22
2022-11-10T07:27:53.955Z,11.14
2022-11-10T07:30:41.420Z,11.07
2022-11-10T07:33:29.379Z,11.12
2022-11-10T07:36:16.710Z,11.24
2022-11-10T07:39:06.633Z,11.26
2022-11-10T07:41:54.110Z,11.27
2022-11-10T07:44:41.705Z,11.29
2022-11-10T07:47:29.664Z,11.31
2022-11-10T07:50:17.695Z,11.28
2022-11-10T07:53:07.639Z,11.32
2022-11-10T07:55:57.390Z,11.40
2022-11-10T07:58:46.622Z,11.46
2022-11-10T08:01:36.971Z,11.51
2022-11-10T08:04:24.717Z,11.55
2022-11-10T08:07:12.275Z,11.56
2022-11-10T08:10:00.611Z,11.57
2022-11-10T08:12:55.404Z,11.51
2022-11-10T08:15:43.220Z,11.49
2022-11-10T08:18:35.095Z,11.53
2022-11-10T08:21:23.290Z,11.57
2022-11-10T08:24:11.125Z,11.66
2022-11-10T08:27:01.031Z,11.72
2022-11-10T08:29:49.006Z,11.72
2022-11-10T08:32:36.390Z,11.75
2022-11-10T08:35:25.446Z,11.79
2022-11-10T08:38:14.777Z,11.74
2022-11-10T08:41:13.500Z,11.71
2022-11-10T08:44:01.111Z,11.69
2022-11-10T08:46:49.136Z,11.74
2022-11-10T08:49:36.852Z,11.79
2022-11-10T08:52:24.602Z,11.86
2022-11-10T08:55:12.303Z,11.87
2022-11-10T08:58:00.680Z,11.92
2022-11-10T09:00:48.831Z,11.96
2022-11-10T09:03:36.389Z,11.98
2022-11-10T09:06:23.657Z,12.02
2022-11-10T09:09:11.537Z,12.11
2022-11-10T09:11:59.447Z,12.16
2022-11-10T09:14:48.482Z,12.21
2022-11-10T09:17:36.590Z,12.23
2022-11-10T09:20:24.075Z,12.27
2022-11-10T09:23:13.587Z,12.33
2022-11-10T09:26:01.594Z,12.38
2022-11-10T09:28:50.486Z,12.43
2022-11-10T09:31:37.949Z,12.42
2022-11-10T09:34:25.448Z,12.44
2022-11-10T09:37:13.141Z,12.44
2022-11-10T09:40:01.531Z,12.50
2022-11-10T09:42:53.964Z,12.49
2022-11-10T09:45:46.218Z,12.54
2022-11-10T09:48:38.783Z,12.61
2022-11-10T09:51:30.300Z,12.69
2022-11-10T09:54:33.344Z,12.73
2022-11-10T09:57:24.287Z,12.66
2022-11-10T10:00:16.433Z,12.64
2022-11-10T10:03:08.147Z,12.68
2022-11-10T10:06:06.417Z,12.68
2022-11-10T10:09:06.580Z,12.62
2022-11-10T10:12:07.989Z,12.64
2022-11-10T10:15:11.601Z,12.67
2022-11-10T10:18:12.721Z,12.63
2022-11-10T10:21:15.817Z,12.60
2022-11-10T10:24:18.032Z,12.60
2022-11-10T10:27:12.883Z,12.62
2022-11-10T10:30:00.298Z,12.64
2022-11-10T10:32:48.026Z,12.69
2022-11-10T10:35:41.918Z,12.76
2022-11-10T10:38:34.599Z,12.83
2022-11-10T10:41:25.049Z,12.84
2022-11-10T10:44:15.041Z,12.92
2022-11-10T10:47:04.004Z,12.97
2022-11-10T10:49:51.779Z,13.05
2022-11-10T10:52:40.660Z,13.12
2022-11-10T10:55:30.141Z,13.19
2022-11-10T10:58:24.392Z,13.25
2022-11-10T11:01:25.032Z,13.31
2022-11-10T11:04:29.343Z,13.35
2022-11-10T11:07:23.309Z,13.32
2022-11-10T11:10:24.714Z,13.32
2022-11-10T11:13:20.615Z,13.36
2022-11-10T11:16:11.813Z,13.38
2022-11-10T11:19:02.285Z,13.39
2022-11-10T11:22:05.304Z,13.48
2022-11-10T11:25:00.774Z,13.54
2022-11-10T11:27:59.521Z,13.60
2022-11-10T11:31:03.178Z,13.57
2022-11-10T11:33:59.462Z,13.46
2022-11-10T11:36:53.373Z,13.35
2022-11-10T11:39:53.932Z,13.29
2022-11-10T11:42:55.412Z,13.21
2022-11-10T11:45:51.953Z,13.12
2022-11-10T11:49:01.182Z,13.06
2022-11-10T11:52:01.698Z,13.04
2022-11-10T11:55:04.032Z,13.09
2022-11-10T11:58:12.880Z,13.15
2022-11-10T12:01:18.040Z,13.16
2022-11-10T12:04:33.172Z,13.20
2022-11-10T12:07:35.087Z,13.25
2022-11-10T12:10:41.894Z,13.24
2022-11-10T12:13:40.223Z,13.21
2022-11-10T12:16:31.298Z,13.25
2022-11-10T12:19:30.329Z,13.31
2022-11-10T12:22:31.069Z,13.37
2022-11-10T12:25:30.621Z,13.44
2022-11-10T12:28:27.122Z,13.47
2022-11-10T12:31:20.641Z,13.48
2022-11-10T12:34:16.245Z,13.47
2022-11-10T12:37:07.163Z,13.43
2022-11-10T12:40:02.834Z,13.44
2022-11-10T12:42:55.570Z,13.45
2022-11-10T12:45:46.674Z,13.43
2022-11-10T12:48:52.436Z,13.43
2022-11-10T12:51:49.256Z,13.49
2022-11-10T12:54:37.793Z,13.52
2022-11-10T12:57:28.783Z,13.56
2022-11-10T13:00:28.505Z,13.57
2022-11-10T13:03:27.369Z,13.57
2022-11-10T13:06:27.007Z,13.52
2022-11-10T13:09:26.385Z,13.46
2022-11-10T13:12:19.910Z,13.46
2022-11-10T13:15:39.219Z,13.46
2022-11-10T13:18:58.536Z,13.49
2022-11-10T13:22:10.261Z,13.56
2022-11-10T13:25:29.963Z,13.65
2022-11-10T13:28:56.549Z,13.61
2022-11-10T13:31:56.465Z,13.50
2022-11-10T13:34:44.688Z,13.48
2022-11-10T13:37:52.344Z,13.48
2022-11-10T13:40:40.380Z,13.49
2022-11-10T13:43:27.967Z,13.51
2022-11-10T13:46:15.894Z,13.43
2022-11-10T13:49:26.098Z,13.33
2022-11-10T13:52:17.948Z,13.30
2022-11-10T13:55:27.780Z,13.35
2022-11-10T13:58:25.752Z,13.28
2022-11-10T14:01:29.591Z,13.20
2022-11-10T14:04:39.620Z,13.16
2022-11-10T14:07:30.010Z,13.09
2022-11-10T14:10:26.316Z,13.06
2022-11-10T14:13:18.927Z,12.98
2022-11-10T14:16:16.904Z,12.96
2022-11-10T14:22:34.639Z,12.81
2022-11-10T14:25:28.900Z,12.78
2022-11-10T14:28:30.649Z,12.76
2022-11-10T14:31:23.348Z,12.76
2022-11-10T14:34:17.307Z,12.84
2022-11-10T14:37:06.383Z,12.85
2022-11-10T14:39:56.641Z,12.78
2022-11-10T14:42:46.468Z,12.74
2022-11-10T14:45:34.044Z,12.70
2022-11-10T14:48:25.020Z,12.69
2022-11-10T14:51:15.427Z,12.68
2022-11-10T14:54:03.487Z,12.71
2022-11-10T14:56:51.272Z,12.75
2022-11-10T14:59:39.799Z,12.79
2022-11-10T15:02:27.947Z,12.77
2022-11-10T15:05:18.052Z,12.71
2022-11-10T15:08:06.521Z,12.65
2022-11-10T15:10:55.664Z,12.64
2022-11-10T15:13:43.082Z,12.62
2022-11-10T15:16:33.381Z,12.58
2022-11-10T15:19:23.879Z,12.53
2022-11-10T15:22:19.511Z,12.52
2022-11-10T15:25:15.637Z,12.48
2022-11-10T15:28:06.371Z,12.42
2022-11-10T15:30:56.172Z,12.38
2022-11-10T15:33:47.679Z,12.33
2022-11-10T15:36:38.918Z,12.30
2022-11-10T15:39:27.660Z,12.27
2022-11-10T15:42:17.447Z,12.20
2022-11-10T15:45:06.281Z,12.16
2022-11-10T15:47:53.600Z,12.12
2022-11-10T15:50:44.408Z,12.08
2022-11-10T15:53:40.799Z,12.01
2022-11-10T15:56:28.423Z,11.99
2022-11-10T15:59:18.300Z,11.92
2022-11-10T16:02:17.381Z,11.87
2022-11-10T16:05:11.274Z,11.81
2022-11-10T16:07:58.801Z,11.79
2022-11-10T16:10:51.180Z,11.76
2022-11-10T16:13:39.802Z,11.72
2022-11-10T16:16:27.708Z,11.68
2022-11-10T16:19:15.265Z,11.64
2022-11-10T16:22:02.941Z,11.62
2022-11-10T16:24:50.362Z,11.61
2022-11-10T16:28:02.520Z,11.56
2022-11-10T16:31:15.545Z,11.48
2022-11-10T16:34:03.223Z,11.41
2022-11-10T16:36:50.821Z,11.37
2022-11-10T16:39:38.547Z,11.31
2022-11-10T16:42:26.048Z,11.30
2022-11-10T16:45:23.300Z,11.29
2022-11-10T16:48:28.196Z,11.24
2022-11-10T16:51:17.656Z,11.13
2022-11-10T16:57:27.080Z,11.02
2022-11-10T17:00:19.394Z,11.00
2022-11-10T17:03:12.793Z,10.95
2022-11-10T17:06:00.826Z,10.90
2022-11-10T17:08:51.064Z,10.86
2022-11-10T17:11:38.737Z,10.83
2022-11-10T17:14:26.689Z,10.75
2022-11-10T17:17:18.042Z,10.76
2022-11-10T17:20:09.594Z,10.74
2022-11-10T17:22:57.499Z,10.71
2022-11-10T17:25:45.818Z,10.68
2022-11-10T17:28:33.385Z,10.68
2022-11-10T17:31:21.325Z,10.67
2022-11-10T17:34:08.692Z,10.66
2022-11-10T17:36:56.743Z,10.58
2022-11-10T17:39:43.998Z,10.53
2022-11-10T17:42:31.429Z,10.52
2022-11-10T17:45:21.096Z,10.49
2022-11-10T17:48:08.397Z,10.48
2022-11-10T17:50:55.575Z,10.46
2022-11-10T17:53:43.489Z,10.46
2022-11-10T17:56:30.860Z,10.46
2022-11-10T17:59:18.191Z,10.45
2022-11-10T18:02:08.821Z,10.45
2022-11-10T18:04:56.688Z,10.46
2022-11-10T18:07:49.654Z,10.48
2022-11-10T18:10:40.501Z,10.46
2022-11-10T18:13:29.628Z,10.46
2022-11-10T18:16:17.691Z,10.44
2022-11-10T18:19:06.870Z,10.44
2022-11-10T18:21:54.455Z,10.42
2022-11-10T18:24:42.395Z,10.42
2022-11-10T18:27:30.852Z,10.46
2022-11-10T18:30:18.937Z,10.47
2022-11-10T18:33:07.249Z,10.48
2022-11-10T18:35:59.620Z,10.53
2022-11-10T18:38:47.644Z,10.58
2022-11-10T18:41:51.712Z,10.50
2022-11-10T18:44:39.514Z,10.52
2022-11-10T18:47:26.860Z,10.57
2022-11-10T18:50:14.412Z,10.58
2022-11-10T18:53:03.678Z,10.61
2022-11-10T18:55:57.392Z,10.64
2022-11-10T19:01:47.261Z,10.67
2022-11-10T19:04:35.782Z,10.65
2022-11-10T19:07:23.538Z,10.68
2022-11-10T19:10:11.365Z,10.72
2022-11-10T19:12:59.320Z,10.76
2022-11-10T19:15:47.059Z,10.74
2022-11-10T19:18:34.216Z,10.74
2022-11-10T19:21:24.051Z,10.78
2022-11-10T19:24:11.648Z,10.76
2022-11-10T19:27:01.690Z,10.79
2022-11-10T19:29:49.153Z,10.76
2022-11-10T19:32:39.574Z,10.78
2022-11-10T19:35:26.940Z,10.78
2022-11-10T19:38:14.611Z,10.77
2022-11-10T19:41:06.472Z,10.83
2022-11-10T19:43:55.281Z,10.86
2022-11-10T19:46:45.600Z,10.90
2022-11-10T19:49:33.016Z,10.93
2022-11-10T19:52:20.505Z,10.95
2022-11-10T19:55:08.729Z,10.99
2022-11-10T19:57:56.600Z,10.98
2022-11-10T20:00:47.064Z,10.99
2022-11-10T20:03:34.898Z,11.02
2022-11-10T20:06:23.268Z,11.03
2022-11-10T20:09:11.072Z,11.04
2022-11-10T20:11:59.876Z,10.99
2022-11-10T20:14:47.700Z,10.95
2022-11-10T20:17:35.102Z,10.92
2022-11-10T20:20:22.751Z,10.90
2022-11-10T20:23:12.232Z,10.85
2022-11-10T20:26:06.979Z,10.80
2022-11-10T20:28:55.122Z,10.79
2022-11-10T20:31:43.211Z,10.75
2022-11-10T20:34:30.515Z,10.72
2022-11-10T20:37:18.368Z,10.73
2022-11-10T20:40:18.897Z,10.72
2022-11-10T20:43:15.023Z,10.73
2022-11-10T20:46:04.010Z,10.72
2022-11-10T20:48:51.516Z,10.71
2022-11-10T20:51:39.697Z,10.73
2022-11-10T20:54:27.449Z,10.71
2022-11-10T20:57:15.501Z,10.72
2022-11-10T21:00:03.217Z,10.72
2022-11-10T21:02:50.838Z,10.76
2022-11-10T21:05:38.374Z,10.70
2022-11-10T21:08:25.781Z,10.69
2022-11-10T21:11:35.518Z,10.66
2022-11-10T21:14:22.719Z,10.63
2022-11-10T21:17:10.201Z,10.61
2022-11-10T21:19:57.559Z,10.59
2022-11-10T21:22:45.224Z,10.63
2022-11-10T21:25:39.142Z,10.64
2022-11-10T21:28:27.231Z,10.61
2022-11-10T21:31:14.618Z,10.60
2022-11-10T21:34:02.170Z,10.59
2022-11-10T21:37:21.112Z,10.58
2022-11-10T21:40:11.260Z,10.49
2022-11-10T21:42:59.480Z,10.45
2022-11-10T21:45:47.507Z,10.43
2022-11-10T21:48:35.460Z,10.39
2022-11-10T21:51:26.791Z,10.31
2022-11-10T21:54:14.305Z,10.32
2022-11-10T21:57:01.858Z,10.30
2022-11-10T21:59:49.180Z,10.23
2022-11-10T22:02:36.657Z,10.21
2022-11-10T22:05:53.187Z,10.19
2022-11-10T22:09:08.361Z,10.11
2022-11-10T22:12:42.787Z,10.04
2022-11-10T22:15:53.987Z,10.05
2022-11-10T22:18:44.416Z,10.02
2022-11-10T22:21:34.828Z,10.02
2022-11-10T22:24:28.840Z,9.96
2022-11-10T22:27:18.418Z,10.01
2022-11-10T22:30:08.141Z,9.99
2022-11-10T22:33:27.004Z,9.93
2022-11-10T22:36:17.171Z,9.89
2022-11-10T22:39:08.813Z,9.91
2022-11-10T22:42:24.311Z,9.91
2022-11-10T22:45:12.401Z,9.88
2022-11-10T22:48:18.686Z,9.88
2022-11-10T22:51:07.659Z,9.89
2022-11-10T22:53:55.940Z,9.96
2022-11-10T22:56:46.610Z,9.92
2022-11-10T22:59:47.401Z,10.02
2022-11-10T23:02:43.268Z,10.02
2022-11-10T23:05:34.288Z,10.03
2022-11-10T23:08:31.539Z,10.01
2022-11-10T23:12:02.733Z,10.02
2022-11-10T23:14:58.276Z,10.06
2022-11-10T23:17:45.784Z,10.13
2022-11-10T23:20:33.228Z,10.22
2022-11-10T23:23:20.898Z,10.30
2022-11-10T23:26:11.097Z,10.30
2022-11-10T23:28:58.811Z,10.30
2022-11-10T23:31:46.453Z,10.29
2022-11-10T23:34:34.895Z,10.33
2022-11-10T23:37:26.407Z,10.36
2022-11-10T23:40:14.448Z,10.39
2022-11-10T23:43:01.903Z,10.43
2022-11-10T23:48:59.295Z,10.47
2022-11-10T23:51:48.966Z,10.51
2022-11-10T23:54:36.131Z,10.59
2022-11-10T23:57:23.689Z,10.69
